Flight Track Log - Related Links

Times and Time Zones

All times are in EDT time to prevent confusion due to time zone crossing. See the FLG3910 flight status page for this flight to view local times or setup timezone preferences in your user account.

Time Position Orientation Groundspeed Altitude Reporting Facility
EDT Latitude Longitude Course Direction KTS MPH feet Rate Location/Type
Thu 10:23:00 AM 42.2142 -85.5469 118° Southeast 157 181 1,800  Level Chicago Center
Thu 10:24:18 AM 42.1869 -85.4772 118° Southeast 215 247 5,200 2,596 Climbing Chicago Center
Thu 10:25:21 AM 42.1675 -85.3789 105° East 256 295 7,900 2,806 Climbing Chicago Center
Thu 10:26:22 AM 42.1475 -85.2597 103° East 291 335 11,000 1,512 Climbing Chicago Center
Thu 10:27:24 AM 42.1244 -85.1278 103° East 354 407 11,000  Level Chicago Center
Thu 10:28:26 AM 42.0958 -84.9592 103° East 380 437 11,000  Level Chicago Center
Thu 10:29:28 AM 42.0717 -84.8186 103° East 383 441 11,000  Level Chicago Center
Thu 10:30:30 AM 42.0472 -84.6775 103° East 385 443 11,000  Level Chicago Center
Thu 10:31:32 AM 41.9994 -84.5578 118° Southeast 387 445 11,000 43 Level Chicago Center
Thu 10:32:51 AM 41.8864 -84.4875 155° Southeast 331 381 11,100  Climbing Cleveland Center
Thu 10:33:52 AM 41.8528 -84.3442 107° East 394 453 11,000 -52 Descending Cleveland Center
Thu 10:34:47 AM 41.8408 -84.2158 97° East 396 456 11,000  Level Cleveland Center
Thu 10:35:49 AM 41.8311 -84.0603 95° East 411 473 11,000  Level Cleveland Center
Thu 10:36:50 AM 41.8925 -83.9264 58° Northeast 409 471 11,000  Level Cleveland Center
Thu 10:37:51 AM 41.9542 -83.8175 53° Northeast 356 410 11,000  Level Cleveland Center
Thu 10:38:01 AM 41.9586 -83.8114 46° Northeast 367 422 11,000  Level Cleveland Center
Thu 10:38:53 AM 42.0239 -83.7322 42° Northeast 330 380 11,000  Level Cleveland Center
Thu 10:39:03 AM 42.0228 -83.7311 143° Southeast 327 376 11,000  Level Cleveland Center
Thu 10:39:54 AM 42.0992 -83.6589 35° Northeast 326 375 11,000  Level Cleveland Center
Thu 10:40:05 AM 42.0972 -83.6606 212° Southwest 326 375 11,000  Level Cleveland Center
Thu 10:41:07 AM 42.1728 -83.5867 36° Northeast 282 325 11,000  Level Cleveland Center
Thu 10:41:57 AM 42.2242 -83.5361 36° Northeast 277 319 11,000  Level Cleveland Center
Thu 10:42:09 AM 42.2364 -83.5233 38° Northeast 276 318 11,000 -492 Level Cleveland Center
Thu 10:42:58 AM 42.2914 -83.4808 30° Northeast 273 314 10,500 -774 Descending Cleveland Center
Thu 10:43:11 AM 42.3058 -83.4731 22° Northeast 277 319 10,200 -885 Descending Cleveland Center
Thu 10:43:59 AM 42.3572 -83.4450 22° Northeast 242 278 9,600 -857 Descending Cleveland Center
Thu 10:44:14 AM 42.3708 -83.4389 18° North 256 295 9,300 -2,710 Descending Cleveland Center
Thu 10:45:01 AM 42.4225 -83.4119 21° North 236 272 6,800 -2,806 Descending Cleveland Center
Thu 10:45:16 AM 42.4333 -83.4061 22° Northeast 238 274 6,400 -2,361 Descending Cleveland Center
Thu 10:46:02 AM 42.4742 -83.3683 34° Northeast 208 239 4,400 -1,839 Descending Cleveland Center
Thu 10:46:18 AM 42.4778 -83.3558 69° East 226 260 4,500 -393 Climbing Cleveland Center
Thu 10:47:03 AM 42.4583 -83.3011 116° Southeast 186 214 4,000 -484 Descending Cleveland Center
Thu 10:47:20 AM 42.4561 -83.2906 106° East 202 232 4,000  Level Cleveland Center
Thu 10:48:05 AM 42.4161 -83.2781 167° South 177 204 4,000  Level Cleveland Center
Thu 10:48:22 AM 42.4125 -83.2797 199° South 187 215 4,000  Level Cleveland Center
Thu 10:49:12 AM 42.3650 -83.2908 190° South 168 193 4,000  Level Cleveland Center
Thu 10:49:24 AM 42.3650 -83.2900 90° East 177 204 4,000 -984 Level Cleveland Center
Thu 10:50:13 AM 42.3161 -83.3008 189° South 174 200 3,000 -1,355 Descending Cleveland Center
Thu 10:50:26 AM 42.3094 -83.3036 197° South 171 197 2,600 -1,065 Descending Cleveland Center
Thu 10:51:15 AM 42.2739 -83.3317 210° Southwest 161 185 1,900 -871 Descending Cleveland Center
Thu 10:51:28 AM 42.2689 -83.3347 204° Southwest 168 193 1,700 -787 Descending Cleveland Center
Thu 10:52:16 AM 42.2406 -83.3550 208° Southwest 128 147 1,100 -677 Descending Cleveland Center
Thu 10:52:30 AM 42.2375 -83.3583 219° Southwest 143 165 1,000 -429 Descending Cleveland Center

Login

Don't have an account? Register now (free) for customized features, flight alerts, and more!